Time;durP1;ratioP1;P1;durP2;ratioP2;P2;SDS_P1;SDS_P2;PMS_P1;PMS_P2;Temp;Humidity;BMP_temperature;BMP_pressure;BME280_temperature;BME280_humidity;BME280_pressure;Samples;Min_cycle;Max_cycle;Signal;HPM_P1;HPM_P2
2023/06/01 01:20:26;;;;;;;9.38;4.72;;;;;;;18.39;100.00;100040.84;10482403;28;20968;-67
2023/06/01 01:26:01;;;;;;;7.38;4.40;;;;;;;18.55;100.00;100048.28;10483083;27;20049;-66
2023/06/01 01:31:05;;;;;;;7.32;4.25;;;;;;;18.17;100.00;100013.59;10464527;28;20052;-66
2023/06/01 01:36:08;;;;;;;8.25;4.40;;;;;;;18.32;100.00;100050.88;10440951;28;20048;-66
2023/06/01 01:41:09;;;;;;;8.93;4.35;;;;;;;18.31;100.00;100066.19;10440479;28;20045;-66
2023/06/01 01:46:26;;;;;;;7.43;4.32;;;;;;;18.35;100.00;100078.13;10440863;28;20037;-67
2023/06/01 01:51:37;;;;;;;16.98;5.00;;;;;;;18.07;100.00;100024.91;10440134;28;20045;-66
2023/06/01 01:56:39;;;;;;;7.47;4.13;;;;;;;17.94;100.00;99992.78;10440562;28;20047;-67
2023/06/01 02:19:03;;;;;;;9.40;4.28;;;;;;;18.57;100.00;100078.44;10472860;28;20412;-65
2023/06/01 02:24:06;;;;;;;8.15;4.20;;;;;;;18.57;100.00;100081.13;10399635;28;20045;-66
2023/06/01 02:29:07;;;;;;;10.60;3.90;;;;;;;18.65;100.00;100096.16;10400293;28;20038;-66
2023/06/01 02:34:07;;;;;;;6.90;3.90;;;;;;;18.51;100.00;100100.06;10400541;28;20046;-65
2023/06/01 02:39:09;;;;;;;6.65;3.78;;;;;;;18.70;100.00;100121.34;10399339;28;20457;-66
2023/06/01 02:44:09;;;;;;;12.63;5.10;;;;;;;18.75;100.00;100118.00;10399795;28;20069;-65
2023/06/01 02:49:10;;;;;;;8.05;4.10;;;;;;;18.85;100.00;100117.47;10399264;28;20069;-65
2023/06/01 02:54:11;;;;;;;8.32;3.92;;;;;;;18.85;100.00;100107.50;10399678;28;20045;-65
2023/06/01 02:59:12;;;;;;;8.27;3.42;;;;;;;18.94;100.00;100113.41;10396608;28;20076;-66
2023/06/01 03:04:13;;;;;;;8.90;4.10;;;;;;;18.99;100.00;100110.00;10398796;28;20512;-65
2023/06/01 03:09:13;;;;;;;9.50;3.65;;;;;;;18.99;100.00;100113.50;10399090;28;20069;-65
2023/06/01 03:14:15;;;;;;;4.15;2.97;;;;;;;19.00;100.00;100087.44;10398304;28;20045;-66
2023/06/01 03:19:15;;;;;;;8.27;3.95;;;;;;;19.11;100.00;100092.84;10375212;28;20038;-66
2023/06/01 03:24:17;;;;;;;8.88;3.97;;;;;;;18.41;100.00;99972.31;10370626;28;20050;-65
2023/06/01 03:29:18;;;;;;;7.18;4.00;;;;;;;19.18;100.00;100098.16;10370430;28;20107;-65
2023/06/01 03:34:21;;;;;;;10.63;4.22;;;;;;;19.28;100.00;100097.56;10370368;28;20095;-66
2023/06/01 03:39:21;;;;;;;7.17;3.70;;;;;;;19.25;100.00;100095.34;10371731;28;20540;-66
2023/06/01 03:44:22;;;;;;;6.88;3.85;;;;;;;19.34;100.00;100107.41;10369359;28;20042;-66
2023/06/01 03:49:23;;;;;;;7.80;3.65;;;;;;;19.39;100.00;100092.22;10363685;28;20328;-67
2023/06/01 03:54:24;;;;;;;5.57;3.53;;;;;;;19.38;100.00;100093.28;10364257;28;20042;-63
2023/06/01 03:59:25;;;;;;;6.30;3.65;;;;;;;19.15;100.00;100050.94;10358172;28;20038;-66
2023/06/01 04:04:28;;;;;;;19.88;4.38;;;;;;;19.30;100.00;100057.78;10367934;28;20042;-66
2023/06/01 04:09:30;;;;;;;8.15;3.60;;;;;;;19.81;100.00;100120.97;10364505;28;20065;-65
2023/06/01 04:14:31;;;;;;;7.25;3.53;;;;;;;19.87;100.00;100122.75;10363784;28;20584;-65
2023/06/01 04:19:33;;;;;;;7.47;3.00;;;;;;;20.01;100.00;100112.50;10368423;28;20050;-66
2023/06/01 04:24:34;;;;;;;5.78;3.35;;;;;;;20.17;100.00;100106.41;10345532;28;20038;-66
2023/06/01 04:29:39;;;;;;;5.43;2.80;;;;;;;20.46;100.00;100126.19;10341121;28;20044;-67
2023/06/01 04:34:40;;;;;;;5.18;3.28;;;;;;;20.61;100.00;100133.81;10340517;28;20038;-65
2023/06/01 04:39:41;;;;;;;5.53;3.08;;;;;;;20.33;100.00;100069.78;10354708;28;20048;-66
2023/06/01 04:44:45;;;;;;;4.93;3.05;;;;;;;20.79;100.00;100096.88;10367753;28;20508;-66
2023/06/01 04:49:45;;;;;;;6.28;3.25;;;;;;;22.26;100.00;100147.19;10358560;28;20520;-66
2023/06/01 04:54:46;;;;;;;6.75;3.13;;;;;;;22.24;100.00;100129.56;10357874;28;20049;-68
2023/06/01 04:59:47;;;;;;;5.47;3.33;;;;;;;22.11;100.00;100138.81;10361342;28;20741;-66
2023/06/01 05:04:48;;;;;;;5.13;3.70;;;;;;;21.14;100.00;100070.50;10368732;28;20077;-67
2023/06/01 05:09:48;;;;;;;6.55;3.92;;;;;;;21.25;100.00;100165.25;10368428;28;20049;-66
2023/06/01 05:14:49;;;;;;;8.75;4.13;;;;;;;21.06;100.00;100173.56;10367203;28;20062;-66
2023/06/01 05:19:50;;;;;;;6.88;4.10;;;;;;;20.42;100.00;100103.44;10367357;28;20052;-66
2023/06/01 05:24:51;;;;;;;7.28;4.35;;;;;;;20.71;100.00;100149.38;10367716;28;20519;-67
2023/06/01 05:29:52;;;;;;;6.60;3.90;;;;;;;20.88;100.00;100179.13;10367161;28;20052;-66
2023/06/01 05:34:52;;;;;;;6.15;3.88;;;;;;;20.94;100.00;100122.31;10366640;28;20042;-66
2023/06/01 05:39:53;;;;;;;5.68;4.15;;;;;;;21.12;100.00;100101.53;10366766;28;20401;-66
2023/06/01 05:44:54;;;;;;;7.22;4.13;;;;;;;21.93;100.00;100152.59;10366893;28;20048;-66
2023/06/01 05:49:55;;;;;;;5.57;3.40;;;;;;;21.89;99.89;100171.22;10363268;28;20042;-67
2023/06/01 05:54:55;;;;;;;6.82;3.70;;;;;;;21.34;99.34;100094.34;10365019;28;20575;-67
2023/06/01 05:59:56;;;;;;;5.82;3.35;;;;;;;21.82;97.93;100149.75;10364789;28;20065;-67
2023/06/01 06:04:57;;;;;;;6.15;2.97;;;;;;;21.48;96.41;100067.03;10366425;28;20516;-67
2023/06/01 06:10:47;;;;;;;7.40;3.40;;;;;;;21.99;94.70;100130.00;10508882;27;1879477;-65
2023/06/01 06:15:47;;;;;;;6.53;3.25;;;;;;;22.14;93.77;100124.81;10572898;28;20040;-65
2023/06/01 06:20:48;;;;;;;7.00;3.00;;;;;;;22.55;91.38;100131.59;10560584;28;20065;-66
2023/06/01 06:25:49;;;;;;;5.20;2.63;;;;;;;22.79;90.47;100121.31;10553748;28;20036;-67
2023/06/01 06:30:50;;;;;;;5.22;2.60;;;;;;;22.86;89.73;100104.84;10550480;28;20036;-66
2023/06/01 06:35:51;;;;;;;4.60;2.50;;;;;;;22.66;88.86;100013.38;10552157;28;20494;-66
2023/06/01 06:40:52;;;;;;;7.05;2.35;;;;;;;23.73;88.02;100127.34;10532699;28;20044;-66
2023/06/01 06:45:53;;;;;;;7.85;2.38;;;;;;;23.13;86.97;100064.22;10546041;28;20051;-66
2023/06/01 06:50:53;;;;;;;5.35;2.47;;;;;;;23.71;87.26;100124.09;10547836;28;20040;-66
2023/06/01 06:55:54;;;;;;;5.65;2.42;;;;;;;23.64;84.45;100061.91;10551762;28;20127;-66
2023/06/01 07:00:55;;;;;;;6.25;2.50;;;;;;;24.23;83.46;100125.19;10551671;28;20526;-66
2023/06/01 07:05:56;;;;;;;3.92;2.30;;;;;;;24.06;83.02;100099.09;10543771;28;20040;-66
2023/06/01 07:10:57;;;;;;;4.70;2.33;;;;;;;24.08;82.22;100120.50;10525943;28;20052;-66
2023/06/01 07:15:57;;;;;;;4.50;2.25;;;;;;;23.57;82.97;100058.63;10521877;28;20503;-66
2023/06/01 07:20:58;;;;;;;3.88;2.42;;;;;;;23.33;84.17;100057.34;10495058;28;20040;-67
2023/06/01 07:26:00;;;;;;;4.18;2.30;;;;;;;23.54;85.21;100118.75;10496135;28;20049;-67
2023/06/01 07:31:00;;;;;;;5.22;2.13;;;;;;;23.39;83.58;100080.69;10496364;28;20449;-66
2023/06/01 07:36:02;;;;;;;6.90;2.20;;;;;;;23.62;81.20;100050.50;10494782;28;20070;-67
2023/06/01 07:41:03;;;;;;;5.30;2.35;;;;;;;24.00;79.80;100107.47;10492832;28;20068;-66
2023/06/01 07:46:04;;;;;;;5.53;2.47;;;;;;;23.75;80.80;100086.41;10493748;28;20505;-66
2023/06/01 07:51:06;;;;;;;4.20;1.85;;;;;;;23.99;79.71;100109.38;10469096;28;20032;-70
2023/06/01 07:56:07;;;;;;;4.18;2.10;;;;;;;24.01;78.95;100104.47;10495215;28;20105;-68
2023/06/01 08:01:08;;;;;;;4.78;2.30;;;;;;;23.76;79.22;100088.06;10482340;28;20127;-67
2023/06/01 08:06:08;;;;;;;6.85;2.60;;;;;;;23.77;79.37;100081.53;10472379;28;20535;-67
2023/06/01 08:11:09;;;;;;;4.88;2.00;;;;;;;24.24;78.00;100086.16;10495743;28;20051;-67
2023/06/01 08:16:10;;;;;;;4.68;2.08;;;;;;;24.46;76.43;100077.84;10493428;28;20044;-66
2023/06/01 08:21:11;;;;;;;5.90;1.90;;;;;;;25.10;76.06;100061.13;10490498;28;20442;-66
2023/06/01 08:26:12;;;;;;;3.35;1.55;;;;;;;25.26;74.07;100032.06;10488651;28;20132;-69
2023/06/01 08:31:12;;;;;;;4.45;1.90;;;;;;;25.53;74.17;100048.06;10489786;28;20048;-67
2023/06/01 08:36:13;;;;;;;4.47;1.90;;;;;;;25.12;74.25;99984.75;10492193;28;20047;-67
2023/06/01 08:41:24;;;;;;;4.40;1.73;;;;;;;25.59;70.57;100040.72;10493815;28;20048;-67
2023/06/01 08:46:26;;;;;;;5.40;1.60;;;;;;;26.13;68.81;100056.38;10488966;28;20071;-67
2023/06/01 08:51:28;;;;;;;4.63;1.70;;;;;;;26.29;68.84;100046.25;10470337;28;20044;-67
2023/06/01 08:56:42;;;;;;;4.32;1.38;;;;;;;25.93;68.94;100041.75;10456475;28;20041;-67
2023/06/01 09:01:44;;;;;;;5.50;1.85;;;;;;;24.93;71.50;99990.72;10415917;28;20042;-67
2023/06/01 09:06:45;;;;;;;5.80;1.83;;;;;;;25.00;71.53;100042.91;10415005;28;20088;-66
2023/06/01 09:11:47;;;;;;;4.53;1.30;;;;;;;25.34;69.33;100027.97;10414320;28;20501;-66
2023/06/01 09:16:48;;;;;;;2.80;1.17;;;;;;;25.05;69.58;100026.59;10415199;28;20116;-67
2023/06/01 09:21:59;;;;;;;6.90;1.50;;;;;;;25.42;70.44;100039.09;10419215;28;20037;-67
2023/06/01 09:27:01;;;;;;;4.57;1.20;;;;;;;25.58;68.79;100030.94;10445717;28;20532;-67
2023/06/01 09:32:02;;;;;;;3.47;1.33;;;;;;;25.84;67.54;100027.06;10414013;28;20041;-66
2023/06/01 09:37:07;;;;;;;2.95;1.30;;;;;;;26.33;66.66;100034.53;10436679;28;20056;-67
2023/06/01 09:42:08;;;;;;;3.42;1.17;;;;;;;26.19;66.42;100030.78;10413673;28;20064;-67
2023/06/01 09:47:12;;;;;;;6.90;1.42;;;;;;;25.76;65.93;100030.34;10413833;28;20048;-66
2023/06/01 09:52:16;;;;;;;1.95;1.08;;;;;;;25.59;67.29;100022.50;10413679;28;20041;-67
2023/06/01 09:57:25;;;;;;;2.85;1.40;;;;;;;26.06;65.86;100017.78;10413350;28;20034;-66
2023/06/01 10:02:26;;;;;;;2.88;1.35;;;;;;;26.59;64.92;100026.22;10428052;28;20110;-67
2023/06/01 10:07:29;;;;;;;4.05;1.40;;;;;;;26.12;63.70;100024.81;10413710;28;20065;-66
2023/06/01 10:12:31;;;;;;;;;;;;;;;26.48;63.94;100021.91;10415984;28;20044;-67
2023/06/01 10:17:34;;;;;;;2.50;1.20;;;;;;;26.21;64.44;100028.59;10454390;28;20125;-66
2023/06/01 10:22:35;;;;;;;6.65;1.80;;;;;;;25.90;64.57;99987.88;10454699;28;20123;-67
2023/06/01 10:27:42;;;;;;;4.47;1.10;;;;;;;26.19;61.41;99992.66;10414751;28;20454;-68
2023/06/01 10:32:44;;;;;;;1.83;0.90;;;;;;;26.14;61.19;99990.75;10413385;28;20037;-66
2023/06/01 10:38:17;;;;;;;4.07;1.30;;;;;;;26.44;59.97;99993.59;10413349;28;20045;-66
2023/06/01 10:43:36;;;;;;;2.50;1.10;;;;;;;26.11;60.75;99996.75;10411940;28;20037;-66
2023/06/01 10:48:57;;;;;;;3.38;1.10;;;;;;;25.81;61.95;99989.50;10412515;28;20489;-66
2023/06/01 10:54:32;;;;;;;4.45;1.30;;;;;;;25.80;61.26;99987.91;10396412;28;20045;-67
2023/06/01 10:59:32;;;;;;;2.63;1.02;;;;;;;26.15;61.25;99975.25;10420178;28;20083;-66
2023/06/01 11:04:36;;;;;;;8.63;1.30;;;;;;;25.82;59.17;99942.22;10420332;28;20061;-66
2023/06/01 11:09:47;;;;;;;5.28;1.38;;;;;;;26.04;59.66;99892.03;10418943;28;20111;-66
2023/06/01 11:15:12;;;;;;;32.97;2.92;;;;;;;27.17;58.86;99963.66;10418857;28;20444;-66
2023/06/01 11:20:14;;;;;;;2.70;1.10;;;;;;;26.75;58.28;99954.19;10418791;28;20080;-67
2023/06/01 11:25:17;;;;;;;8.17;1.33;;;;;;;26.61;56.70;99887.81;10419697;28;20045;-66
2023/06/01 11:30:19;;;;;;;6.45;1.75;;;;;;;26.68;57.42;99956.41;10445792;28;20041;-67
2023/06/01 11:35:22;;;;;;;4.77;1.20;;;;;;;26.21;58.63;99965.97;10450158;28;20504;-66
2023/06/01 11:40:24;;;;;;;7.15;1.60;;;;;;;25.94;59.66;99971.81;10449780;28;20037;-67
2023/06/01 11:45:27;;;;;;;5.38;1.25;;;;;;;25.74;59.22;99964.53;10426308;28;20041;-66
2023/06/01 11:50:29;;;;;;;4.40;1.23;;;;;;;25.96;60.09;99970.44;10458852;28;20056;-66
2023/06/01 11:55:29;;;;;;;5.40;1.00;;;;;;;24.88;59.39;99840.50;10459248;28;20345;-66
2023/06/01 12:00:30;;;;;;;4.40;1.33;;;;;;;25.16;60.72;99934.19;10425028;28;20095;-71
2023/06/01 12:05:44;;;;;;;4.78;1.10;;;;;;;25.05;60.60;99964.09;10426147;28;20048;-66
2023/06/01 12:10:47;;;;;;;3.42;1.25;;;;;;;24.84;61.35;99978.78;10459579;28;20064;-66
2023/06/01 12:15:53;;;;;;;6.07;1.40;;;;;;;24.70;62.63;99983.91;10432652;28;20049;-66
2023/06/01 12:20:54;;;;;;;4.90;1.30;;;;;;;24.11;63.39;99898.31;10416381;28;20045;-66
2023/06/01 12:26:01;;;;;;;5.00;1.38;;;;;;;24.21;63.91;99910.25;10417129;28;20034;-66
2023/06/01 12:31:12;;;;;;;3.25;1.42;;;;;;;24.46;63.77;99953.75;10399590;28;20121;-68
2023/06/01 12:36:31;;;;;;;5.57;1.40;;;;;;;24.42;64.47;99938.25;10416718;28;20044;-66
2023/06/01 12:41:32;;;;;;;5.28;1.50;;;;;;;23.80;63.70;99851.28;10427547;28;20083;-65
2023/06/01 12:46:35;;;;;;;10.07;1.80;;;;;;;24.19;64.62;99926.78;10431000;28;20143;-66
2023/06/01 12:51:36;;;;;;;4.55;1.40;;;;;;;23.61;64.18;99850.94;10445970;28;20072;-65
2023/06/01 12:56:37;;;;;;;3.50;1.40;;;;;;;24.13;64.52;99955.81;10415307;28;20049;-65
2023/06/01 13:01:37;;;;;;;4.00;1.30;;;;;;;23.62;64.97;99878.84;10441816;28;20045;-66
2023/06/01 13:06:39;;;;;;;9.85;1.50;;;;;;;24.22;65.22;99958.03;10456117;28;20183;-66
2023/06/01 13:11:40;;;;;;;7.40;1.48;;;;;;;23.94;65.01;99907.75;10455985;28;20045;-65
2023/06/01 13:16:40;;;;;;;2.70;1.10;;;;;;;24.40;65.91;99976.50;10455537;28;20044;-65
2023/06/01 13:21:41;;;;;;;3.22;1.13;;;;;;;24.41;65.27;99980.88;10455318;28;20103;-66
2023/06/01 13:26:42;;;;;;;2.75;1.15;;;;;;;24.06;65.04;99924.59;10448245;28;20037;-65
2023/06/01 13:31:43;;;;;;;2.78;1.20;;;;;;;23.90;64.71;99921.84;10455969;28;20087;-65
2023/06/01 13:36:44;;;;;;;3.72;1.25;;;;;;;24.43;65.39;99986.06;10455208;28;20071;-66
2023/06/01 13:41:44;;;;;;;590.20;40.22;;;;;;;24.62;65.79;99998.06;10436496;28;20037;-66
2023/06/01 13:46:45;;;;;;;4.78;1.35;;;;;;;24.43;64.02;99905.41;10414543;28;20393;-66
2023/06/01 13:51:46;;;;;;;6.07;1.45;;;;;;;25.09;63.31;99977.94;10413660;28;20448;-66
2023/06/01 13:56:47;;;;;;;6.72;1.40;;;;;;;25.67;61.79;99983.06;10398567;28;20514;-66
2023/06/01 14:01:49;;;;;;;4.32;1.10;;;;;;;25.99;60.33;99992.75;10441493;28;20047;-66
2023/06/01 14:06:50;;;;;;;3.42;1.02;;;;;;;26.24;59.51;99980.94;10437975;28;20126;-67
2023/06/01 14:11:50;;;;;;;2.25;1.00;;;;;;;26.21;59.21;99993.19;10454880;28;20049;-66
2023/06/01 14:16:51;;;;;;;12.70;2.08;;;;;;;25.68;59.54;99941.97;10423725;28;20052;-66
2023/06/01 14:21:53;;;;;;;8.25;1.50;;;;;;;25.04;60.23;99910.84;10413017;28;20573;-66
2023/06/01 14:26:54;;;;;;;4.22;1.00;;;;;;;25.32;60.83;99968.44;10412954;28;20033;-66
2023/06/01 14:31:55;;;;;;;2.47;0.88;;;;;;;25.40;60.89;99972.53;10420098;28;20455;-66
2023/06/01 14:36:55;;;;;;;7.50;1.50;;;;;;;25.20;61.52;99946.19;10420767;28;20042;-66
2023/06/01 14:41:56;;;;;;;4.28;1.70;;;;;;;25.36;60.38;99926.00;10420171;28;20128;-66
2023/06/01 14:46:57;;;;;;;6.80;1.30;;;;;;;25.93;60.40;99970.19;10419914;28;20080;-66
2023/06/01 14:51:58;;;;;;;4.35;1.42;;;;;;;25.41;59.93;99906.16;10420455;28;20114;-66
2023/06/01 14:56:58;;;;;;;3.70;1.20;;;;;;;25.18;60.39;99904.84;10420252;28;20045;-66
2023/06/01 15:02:01;;;;;;;3.33;1.90;;;;;;;25.31;60.46;99974.13;10418803;28;20559;-66
2023/06/01 15:07:02;;;;;;;10.57;4.93;;;;;;;24.87;61.59;99974.72;10419947;28;20088;-66
2023/06/01 15:12:03;;;;;;;7.97;3.78;;;;;;;24.57;63.25;99970.88;10420026;28;20083;-68
2023/06/01 15:17:04;;;;;;;13.20;7.53;;;;;;;24.38;63.39;99970.56;10402171;28;20469;-66
2023/06/01 15:22:05;;;;;;;13.18;8.18;;;;;;;24.05;64.89;99961.78;10418653;28;20044;-65
2023/06/01 15:27:07;;;;;;;15.48;5.75;;;;;;;23.97;66.06;99975.84;10418631;28;20067;-66
2023/06/01 15:32:08;;;;;;;78.30;50.67;;;;;;;23.79;66.95;99968.19;10418734;28;20045;-66
2023/06/01 15:37:09;;;;;;;38.10;24.50;;;;;;;23.49;67.91;99952.56;10418381;28;20119;-66
2023/06/01 15:42:10;;;;;;;23.63;14.60;;;;;;;23.45;67.99;99966.63;10418087;28;20077;-66
2023/06/01 15:47:11;;;;;;;19.83;10.25;;;;;;;23.28;69.11;99965.97;10418299;28;20603;-65
2023/06/01 15:52:12;;;;;;;6.57;3.20;;;;;;;23.33;70.67;99986.88;10427158;28;20071;-66
2023/06/01 15:57:13;;;;;;;14.35;4.70;;;;;;;23.18;73.09;99990.28;10427155;28;20049;-65
2023/06/01 16:02:13;;;;;;;29.05;5.90;;;;;;;22.59;73.80;99915.31;10447477;28;20454;-66
2023/06/01 16:07:14;;;;;;;14.95;8.50;;;;;;;22.93;74.77;99996.28;10438000;28;20061;-66
2023/06/01 16:12:15;;;;;;;9.30;4.70;;;;;;;22.76;77.29;100008.09;10416843;28;20045;-66
2023/06/01 16:17:16;;;;;;;8.07;4.57;;;;;;;22.49;79.32;99985.59;10417493;28;20037;-65
2023/06/01 16:22:17;;;;;;;41.15;17.35;;;;;;;22.40;79.23;100006.88;10416373;28;20075;-65
2023/06/01 16:27:17;;;;;;;23.00;14.52;;;;;;;22.26;80.60;100019.19;10398374;28;20049;-66
2023/06/01 16:32:18;;;;;;;22.23;10.35;;;;;;;21.69;82.69;99941.94;10416037;28;20041;-66
2023/06/01 16:37:19;;;;;;;19.33;8.60;;;;;;;21.91;84.66;100006.81;10416381;28;20042;-68
2023/06/01 16:42:20;;;;;;;18.90;10.52;;;;;;;22.11;86.26;100063.91;10416119;28;20072;-65
2023/06/01 16:47:20;;;;;;;18.23;9.93;;;;;;;21.90;87.60;100062.00;10415171;28;20045;-65
2023/06/01 16:52:21;;;;;;;21.75;9.18;;;;;;;21.80;88.47;100059.94;10414525;28;20033;-66
2023/06/01 16:57:28;;;;;;;15.57;7.88;;;;;;;21.46;92.30;100026.75;10414998;28;20068;-66
2023/06/01 17:02:30;;;;;;;14.73;6.65;;;;;;;21.63;91.10;100091.63;10415449;28;20390;-66
2023/06/01 17:07:31;;;;;;;13.27;6.18;;;;;;;21.50;92.25;100089.22;10414664;28;20065;-65
2023/06/01 17:12:32;;;;;;;11.32;5.78;;;;;;;21.54;92.91;100106.56;10414375;28;20052;-66
2023/06/01 17:17:32;;;;;;;10.35;4.18;;;;;;;21.39;93.22;100121.50;10414342;28;20167;-66
2023/06/01 17:22:33;;;;;;;6.22;3.83;;;;;;;21.43;93.47;100136.16;10414728;28;20041;-70
2023/06/01 17:27:34;;;;;;;14.93;3.97;;;;;;;21.41;93.57;100149.06;10414496;28;20132;-66
2023/06/01 17:32:35;;;;;;;3.92;1.90;;;;;;;21.43;91.75;100182.09;10413706;28;20147;-67
2023/06/01 17:37:36;;;;;;;4.13;1.08;;;;;;;20.59;87.06;100135.09;10414140;28;20037;-66
2023/06/01 17:42:37;;;;;;;5.60;1.15;;;;;;;20.26;85.64;100179.69;10413490;28;20033;-67
2023/06/01 17:47:37;;;;;;;6.15;0.80;;;;;;;20.00;85.38;100200.69;10414936;28;20048;-66
2023/06/01 17:52:38;;;;;;;2.80;0.90;;;;;;;19.22;86.35;100142.41;10414320;28;20041;-65
2023/06/01 17:57:39;;;;;;;3.90;1.08;;;;;;;19.21;87.25;100205.41;10412968;28;20198;-65
2023/06/01 18:02:40;;;;;;;4.78;1.25;;;;;;;19.12;87.69;100202.19;10413538;28;20136;-66
2023/06/01 18:07:40;;;;;;;5.93;1.08;;;;;;;19.12;88.41;100209.47;10412923;28;20540;-66
2023/06/01 18:12:41;;;;;;;2.97;1.05;;;;;;;18.16;88.71;100061.19;10413330;28;20397;-65
2023/06/01 18:17:42;;;;;;;6.15;1.00;;;;;;;18.93;88.90;100208.63;10412593;28;20073;-65
2023/06/01 18:22:43;;;;;;;3.10;0.85;;;;;;;18.97;89.37;100220.63;10412500;28;20052;-66
2023/06/01 18:27:44;;;;;;;4.32;1.00;;;;;;;19.02;89.65;100242.28;10412753;28;20045;-65
2023/06/01 18:32:44;;;;;;;2.38;0.70;;;;;;;19.08;89.69;100243.25;10413442;28;20044;-65
2023/06/01 18:37:45;;;;;;;5.13;0.90;;;;;;;19.06;89.89;100234.59;10412202;28;20041;-66
2023/06/01 18:42:46;;;;;;;2.38;0.70;;;;;;;18.89;90.12;100197.50;10411931;28;20044;-66
2023/06/01 18:47:47;;;;;;;2.97;0.70;;;;;;;18.53;91.55;100141.84;10413313;28;20037;-69
2023/06/01 18:52:48;;;;;;;4.18;0.80;;;;;;;18.70;93.32;100187.78;10412519;28;20044;-66
2023/06/01 18:57:48;;;;;;;3.33;0.80;;;;;;;18.51;94.46;100180.75;10412767;28;20128;-66
2023/06/01 19:02:49;;;;;;;2.38;0.70;;;;;;;18.33;96.38;100165.44;10412183;28;20099;-67
2023/06/01 19:07:50;;;;;;;4.20;0.95;;;;;;;18.23;98.04;100164.09;10411370;28;20098;-67
2023/06/01 19:12:53;;;;;;;5.38;1.10;;;;;;;18.17;98.75;100159.59;10412459;28;20397;-66
2023/06/01 19:17:54;;;;;;;3.20;1.50;;;;;;;17.65;99.46;100085.63;10418443;28;20048;-67
2023/06/01 19:22:55;;;;;;;3.65;1.30;;;;;;;18.14;100.00;100173.47;10418657;28;20397;-67
2023/06/01 19:27:56;;;;;;;6.03;1.15;;;;;;;18.13;100.00;100165.66;10418333;28;20033;-67
2023/06/01 19:32:57;;;;;;;8.18;1.02;;;;;;;17.61;100.00;100087.13;10419273;28;20187;-67
2023/06/01 19:37:58;;;;;;;3.25;1.10;;;;;;;18.06;100.00;100181.81;10401056;28;20049;-66
2023/06/01 19:42:59;;;;;;;2.72;1.30;;;;;;;17.84;100.00;100140.28;10418173;28;20037;-66
2023/06/01 19:48:00;;;;;;;3.25;1.40;;;;;;;18.01;100.00;100158.31;10417730;28;20042;-66
2023/06/01 19:53:03;;;;;;;4.70;1.30;;;;;;;17.48;100.00;100063.91;10418785;28;20087;-66
2023/06/01 19:58:10;;;;;;;5.83;1.83;;;;;;;17.96;100.00;100131.28;10418069;28;20041;-66
2023/06/01 20:03:12;;;;;;;6.22;1.88;;;;;;;17.95;100.00;100132.31;10417711;28;20034;-67
2023/06/01 20:08:15;;;;;;;4.57;2.00;;;;;;;17.82;100.00;100115.50;10417108;28;20520;-67
2023/06/01 20:13:17;;;;;;;3.87;1.30;;;;;;;17.88;100.00;100123.47;10416924;28;20467;-66
2023/06/01 20:18:18;;;;;;;4.35;1.42;;;;;;;17.76;100.00;100112.59;10417136;28;20048;-67
2023/06/01 20:23:18;;;;;;;3.40;1.33;;;;;;;17.53;100.00;100099.81;10416378;28;20508;-66
2023/06/01 20:28:46;;;;;;;4.10;1.33;;;;;;;17.68;100.00;100117.44;10415999;28;20045;-67
2023/06/01 20:33:48;;;;;;;5.40;1.52;;;;;;;17.46;100.00;100106.25;10417148;28;20041;-66
2023/06/01 20:38:49;;;;;;;5.05;1.20;;;;;;;17.36;100.00;100095.19;10415531;28;20416;-66
2023/06/01 20:43:53;;;;;;;3.70;1.15;;;;;;;17.42;100.00;100097.81;10415541;28;20044;-66
2023/06/01 20:48:59;;;;;;;5.90;1.30;;;;;;;17.41;100.00;100098.03;10415976;28;20045;-66
2023/06/01 20:54:12;;;;;;;7.72;1.20;;;;;;;17.20;100.00;100083.13;10415960;28;20068;-66
2023/06/01 20:59:21;;;;;;;2.17;0.90;;;;;;;17.22;100.00;100091.78;10416399;28;20052;-66
2023/06/01 21:04:27;;;;;;;6.25;1.20;;;;;;;17.19;100.00;100084.16;10398262;28;20052;-66
2023/06/01 21:09:27;;;;;;;4.68;0.98;;;;;;;17.13;100.00;100083.16;10414816;28;20144;-67
2023/06/01 21:14:30;;;;;;;2.72;1.10;;;;;;;17.11;100.00;100075.34;10415019;28;20128;-66
2023/06/01 21:19:32;;;;;;;4.70;1.35;;;;;;;17.13;100.00;100067.06;10414245;28;20064;-66
2023/06/01 21:24:33;;;;;;;3.97;1.27;;;;;;;16.39;100.00;99970.13;10413995;28;20034;-66
2023/06/01 21:29:33;;;;;;;3.38;1.15;;;;;;;17.00;100.00;100075.22;10413802;28;20053;-66
2023/06/01 21:34:34;;;;;;;2.08;1.00;;;;;;;16.91;100.00;100058.56;10413563;28;20082;-66
2023/06/01 21:39:35;;;;;;;4.50;1.40;;;;;;;16.16;100.00;99935.00;10413582;28;20042;-67
2023/06/01 21:44:36;;;;;;;10.70;2.05;;;;;;;16.86;100.00;100051.16;10414860;28;20056;-67
2023/06/01 21:49:37;;;;;;;3.58;1.75;;;;;;;16.71;100.00;100047.91;10413750;28;20038;-66
2023/06/01 21:54:38;;;;;;;3.63;1.70;;;;;;;16.79;100.00;100053.06;10413645;28;20041;-67
2023/06/01 21:59:38;;;;;;;3.45;1.55;;;;;;;16.79;100.00;100049.56;10413568;28;20034;-67
2023/06/01 22:04:39;;;;;;;4.82;1.88;;;;;;;16.79;100.00;100046.88;10413324;28;20409;-67
2023/06/01 22:09:40;;;;;;;4.50;1.60;;;;;;;16.67;100.00;100060.94;10413746;28;20471;-67
2023/06/01 22:14:41;;;;;;;4.47;1.85;;;;;;;16.66;100.00;100053.09;10394935;28;20071;-66
2023/06/01 22:19:42;;;;;;;3.70;1.77;;;;;;;16.65;100.00;100056.81;10412613;28;20072;-67
2023/06/01 22:24:42;;;;;;;4.07;1.75;;;;;;;16.57;100.00;100055.22;10434874;28;20056;-67
2023/06/01 22:29:43;;;;;;;4.13;1.70;;;;;;;16.46;100.00;100036.31;10453939;28;20072;-67
2023/06/01 22:34:44;;;;;;;3.20;1.38;;;;;;;16.51;100.00;100047.19;10445367;28;20037;-66
2023/06/01 22:39:45;;;;;;;4.78;1.50;;;;;;;16.48;100.00;100058.34;10412214;28;20052;-67
2023/06/01 22:44:46;;;;;;;6.10;1.75;;;;;;;16.44;100.00;100074.84;10411980;28;20048;-67
2023/06/01 22:49:47;;;;;;;6.22;1.50;;;;;;;16.50;100.00;100081.22;10413855;28;20033;-67
2023/06/01 22:54:47;;;;;;;5.28;1.45;;;;;;;16.36;100.00;100085.84;10420488;28;20038;-66
2023/06/01 22:59:48;;;;;;;5.55;1.90;;;;;;;16.33;100.00;100077.38;10419774;28;20552;-67
2023/06/01 23:04:52;;;;;;;3.72;1.70;;;;;;;16.38;100.00;100075.72;10419585;28;20045;-67
2023/06/01 23:09:56;;;;;;;2.33;1.50;;;;;;;16.26;100.00;100072.03;10420153;28;20069;-67
2023/06/01 23:14:57;;;;;;;4.03;1.52;;;;;;;15.74;100.00;100007.69;10401652;28;20113;-67
2023/06/01 23:20:05;;;;;;;3.95;1.55;;;;;;;16.20;100.00;100079.06;10418895;28;20041;-67
2023/06/01 23:25:06;;;;;;;10.32;1.55;;;;;;;15.99;100.00;100068.63;10418676;28;20091;-67
2023/06/01 23:30:07;;;;;;;3.83;1.35;;;;;;;16.00;100.00;100074.81;10419163;28;20521;-67
2023/06/01 23:35:09;;;;;;;7.20;1.77;;;;;;;15.99;100.00;100073.97;10419722;28;20053;-67
2023/06/01 23:40:10;;;;;;;5.25;1.30;;;;;;;16.08;100.00;100087.97;10418850;28;20048;-67
2023/06/01 23:45:13;;;;;;;6.97;1.67;;;;;;;16.01;100.00;100077.28;10418451;28;20448;-66
2023/06/01 23:50:14;;;;;;;3.80;1.88;;;;;;;15.48;100.00;99999.69;10418374;28;20128;-67
2023/06/01 23:55:15;;;;;;;4.35;1.60;;;;;;;15.56;100.00;100015.53;10418159;28;20481;-67
